createdAt,value
2023-07-26T00:00:28.600Z,29.00
2023-07-26T00:03:00.884Z,29.00
2023-07-26T00:05:35.463Z,29.10
2023-07-26T00:08:07.901Z,29.10
2023-07-26T00:10:42.130Z,29.20
2023-07-26T00:13:14.236Z,29.10
2023-07-26T00:15:46.613Z,29.20
2023-07-26T00:18:20.937Z,29.10
2023-07-26T00:20:56.385Z,29.20
2023-07-26T00:23:28.572Z,29.10
2023-07-26T00:26:03.720Z,29.20
2023-07-26T00:28:37.133Z,29.30
2023-07-26T00:31:12.085Z,29.40
2023-07-26T00:33:46.702Z,29.50
2023-07-26T00:36:20.513Z,29.50
2023-07-26T00:38:55.378Z,29.50
2023-07-26T00:41:30.741Z,29.60
2023-07-26T00:44:02.781Z,29.50
2023-07-26T00:46:35.166Z,29.40
2023-07-26T00:49:07.515Z,29.60
2023-07-26T00:51:41.493Z,29.70
2023-07-26T00:54:14.276Z,29.70
2023-07-26T00:56:48.677Z,29.90
2023-07-26T00:59:22.574Z,30.00
2023-07-26T01:01:55.357Z,30.50
2023-07-26T01:04:27.560Z,30.80
2023-07-26T01:07:04.361Z,30.80
2023-07-26T01:09:41.133Z,30.90
2023-07-26T01:12:19.101Z,31.10
2023-07-26T01:14:56.075Z,31.50
2023-07-26T01:17:27.956Z,31.70
2023-07-26T01:20:01.685Z,31.70
2023-07-26T01:22:37.029Z,31.70
2023-07-26T01:25:09.736Z,31.70
2023-07-26T01:27:42.268Z,31.70
2023-07-26T01:30:17.275Z,31.80
2023-07-26T01:32:51.438Z,32.00
2023-07-26T01:35:25.081Z,32.00
2023-07-26T01:38:01.455Z,31.90
2023-07-26T01:40:34.779Z,31.60
2023-07-26T01:43:07.542Z,31.30
2023-07-26T01:45:39.676Z,31.20
2023-07-26T01:48:14.579Z,31.20
2023-07-26T01:50:47.450Z,31.20
2023-07-26T01:53:21.650Z,31.30
2023-07-26T01:55:54.761Z,31.20
2023-07-26T01:58:27.553Z,30.60
2023-07-26T02:01:02.872Z,30.10
2023-07-26T02:03:34.956Z,30.00
2023-07-26T02:06:08.307Z,29.50
2023-07-26T02:08:44.104Z,29.30
2023-07-26T02:11:17.263Z,29.00
2023-07-26T02:13:50.594Z,28.90
2023-07-26T02:16:23.011Z,28.80
2023-07-26T02:18:55.790Z,28.70
2023-07-26T02:21:28.886Z,28.80
2023-07-26T02:24:05.149Z,28.90
2023-07-26T02:26:38.180Z,29.10
2023-07-26T02:29:10.606Z,28.40
2023-07-26T02:31:44.002Z,28.50
2023-07-26T02:34:18.382Z,28.00
2023-07-26T02:36:50.502Z,27.70
2023-07-26T02:39:28.502Z,27.60
2023-07-26T02:42:01.567Z,27.60
2023-07-26T02:44:34.737Z,27.70
2023-07-26T02:47:07.745Z,27.60
2023-07-26T02:49:40.086Z,27.60
2023-07-26T02:52:13.440Z,27.60
2023-07-26T02:54:48.061Z,27.80
2023-07-26T02:57:20.601Z,27.70
2023-07-26T02:59:53.286Z,27.60
2023-07-26T03:02:25.894Z,28.00
2023-07-26T03:04:58.806Z,28.20
2023-07-26T03:07:32.492Z,28.40
2023-07-26T03:10:06.783Z,28.40
2023-07-26T03:12:41.450Z,28.20
2023-07-26T03:15:14.577Z,28.40
2023-07-26T03:17:46.756Z,28.60
2023-07-26T03:20:21.276Z,28.70
2023-07-26T03:22:54.327Z,28.70
2023-07-26T03:25:28.539Z,28.80
2023-07-26T03:28:01.017Z,28.10
2023-07-26T03:30:33.040Z,28.20
2023-07-26T03:33:05.505Z,28.50
2023-07-26T03:35:37.714Z,28.70
2023-07-26T03:38:11.020Z,28.80
2023-07-26T03:40:47.939Z,28.80
2023-07-26T03:43:20.823Z,28.70
2023-07-26T03:45:53.886Z,28.90
2023-07-26T03:48:26.933Z,28.80
2023-07-26T03:50:59.342Z,28.40
2023-07-26T03:53:31.882Z,28.20
2023-07-26T03:56:06.047Z,28.40
2023-07-26T03:58:39.675Z,28.40
2023-07-26T04:01:13.151Z,28.40
2023-07-26T04:03:46.604Z,28.50
2023-07-26T04:06:19.762Z,28.70
2023-07-26T04:08:52.126Z,28.60
2023-07-26T04:11:26.702Z,28.40
2023-07-26T04:14:01.047Z,28.10
2023-07-26T04:16:34.997Z,27.90
2023-07-26T04:19:09.706Z,27.30
2023-07-26T04:21:43.332Z,26.10
2023-07-26T04:24:16.990Z,25.50
2023-07-26T04:26:54.900Z,25.50
2023-07-26T04:29:31.378Z,25.60
2023-07-26T04:32:05.374Z,25.80
2023-07-26T04:34:40.898Z,25.90
2023-07-26T04:37:16.000Z,25.80
2023-07-26T04:39:52.620Z,25.80
2023-07-26T04:42:29.844Z,25.90
2023-07-26T04:45:04.106Z,25.50
2023-07-26T04:47:38.262Z,25.60
2023-07-26T04:50:12.091Z,25.70
2023-07-26T04:52:45.303Z,26.10
2023-07-26T04:55:20.052Z,26.00
2023-07-26T04:57:55.240Z,26.20
2023-07-26T05:00:28.485Z,26.60
2023-07-26T05:03:02.152Z,26.70
2023-07-26T05:05:36.861Z,26.60
2023-07-26T05:08:11.307Z,27.00
2023-07-26T05:10:45.543Z,26.90
2023-07-26T05:13:23.818Z,27.50
2023-07-26T05:15:56.756Z,27.70
2023-07-26T05:18:30.728Z,27.50
2023-07-26T05:21:04.286Z,27.60
2023-07-26T05:23:38.915Z,27.40
2023-07-26T05:26:13.792Z,27.70
2023-07-26T05:28:50.640Z,28.20
2023-07-26T05:31:26.197Z,28.40
2023-07-26T05:34:00.872Z,28.70
2023-07-26T05:36:35.390Z,29.20
2023-07-26T05:39:08.273Z,29.20
2023-07-26T05:41:42.007Z,29.70
2023-07-26T05:44:17.716Z,29.70
2023-07-26T05:46:50.685Z,29.80
2023-07-26T05:49:23.876Z,29.50
2023-07-26T05:51:57.530Z,28.90
2023-07-26T05:54:30.962Z,29.40
2023-07-26T05:57:05.417Z,29.50
2023-07-26T05:59:42.736Z,29.60
2023-07-26T06:02:16.755Z,30.00
2023-07-26T06:04:53.107Z,30.40
2023-07-26T06:07:26.894Z,30.60
2023-07-26T06:10:01.857Z,30.70
2023-07-26T06:12:40.732Z,31.00
2023-07-26T06:15:17.212Z,30.10
2023-07-26T06:17:51.621Z,30.30
2023-07-26T06:20:25.225Z,30.40
2023-07-26T06:22:58.873Z,30.10
2023-07-26T06:25:33.570Z,30.10
2023-07-26T06:28:07.651Z,30.00
2023-07-26T06:30:45.172Z,30.20
2023-07-26T06:33:20.085Z,30.00
2023-07-26T06:35:54.803Z,29.70
2023-07-26T06:38:29.789Z,29.20
2023-07-26T06:41:03.349Z,28.80
2023-07-26T06:43:38.249Z,28.30
2023-07-26T06:46:17.726Z,28.30
2023-07-26T06:48:50.975Z,28.40
2023-07-26T06:51:24.740Z,28.70
2023-07-26T06:53:58.412Z,28.60
2023-07-26T06:56:31.966Z,28.10
2023-07-26T06:59:10.541Z,28.00
2023-07-26T07:01:46.118Z,28.10
2023-07-26T07:04:19.571Z,28.70
2023-07-26T07:06:54.412Z,29.20
2023-07-26T07:09:28.113Z,29.50
2023-07-26T07:12:02.243Z,29.50
2023-07-26T07:14:36.164Z,29.20
2023-07-26T07:17:11.431Z,29.20
2023-07-26T07:19:46.448Z,29.10
2023-07-26T07:22:20.820Z,28.50
2023-07-26T07:24:54.802Z,28.80
2023-07-26T07:27:28.788Z,29.00
2023-07-26T07:30:04.934Z,29.30
2023-07-26T07:32:41.853Z,29.80
2023-07-26T07:35:17.167Z,30.20
2023-07-26T07:37:51.040Z,29.90
2023-07-26T07:40:24.230Z,30.10
2023-07-26T07:42:57.657Z,29.90
2023-07-26T07:45:31.360Z,30.00
2023-07-26T07:48:07.017Z,30.30
2023-07-26T07:50:41.233Z,30.40
2023-07-26T07:53:16.047Z,30.40
2023-07-26T07:55:49.474Z,30.40
2023-07-26T07:58:23.303Z,30.40
2023-07-26T08:01:01.609Z,30.50
2023-07-26T08:03:37.673Z,30.60
2023-07-26T08:06:12.223Z,30.60
2023-07-26T08:08:46.462Z,30.40
2023-07-26T08:11:19.763Z,30.50
2023-07-26T08:13:53.050Z,30.30
2023-07-26T08:16:27.728Z,30.30
2023-07-26T08:19:06.159Z,30.30
2023-07-26T08:21:40.837Z,30.10
2023-07-26T08:24:17.768Z,30.10
2023-07-26T08:26:52.598Z,30.10
2023-07-26T08:29:25.825Z,30.10
2023-07-26T08:31:59.078Z,30.20
2023-07-26T08:34:34.775Z,30.00
2023-07-26T08:37:07.971Z,30.10
2023-07-26T08:39:40.981Z,30.30
2023-07-26T08:42:16.008Z,30.50
2023-07-26T08:44:51.978Z,30.40
2023-07-26T08:47:27.344Z,30.50
2023-07-26T08:50:08.528Z,30.50
2023-07-26T08:52:42.315Z,30.50
2023-07-26T08:55:16.234Z,30.70
2023-07-26T08:57:50.454Z,30.70
2023-07-26T09:00:24.984Z,30.70
2023-07-26T09:03:02.596Z,30.60
2023-07-26T09:05:38.169Z,30.70
2023-07-26T09:08:12.569Z,31.00
2023-07-26T09:10:46.431Z,30.80
2023-07-26T09:13:20.182Z,30.80
2023-07-26T09:15:55.154Z,30.90
2023-07-26T09:18:28.377Z,31.00
2023-07-26T09:21:09.047Z,31.10
2023-07-26T09:23:52.236Z,31.10
2023-07-26T09:26:41.925Z,31.20
2023-07-26T09:29:15.864Z,30.90
2023-07-26T09:31:49.003Z,30.60
2023-07-26T09:34:25.452Z,30.40
2023-07-26T09:37:01.077Z,29.80
2023-07-26T09:39:35.726Z,29.60
2023-07-26T09:42:10.731Z,29.50
2023-07-26T09:44:43.634Z,29.80
2023-07-26T09:47:18.900Z,29.60
2023-07-26T09:50:15.639Z,29.60
2023-07-26T09:52:51.536Z,29.50
2023-07-26T09:58:07.376Z,29.40
2023-07-26T10:00:42.991Z,29.20
2023-07-26T10:03:20.237Z,29.40
2023-07-26T10:05:55.974Z,29.50
2023-07-26T10:08:33.588Z,29.40
2023-07-26T10:11:08.932Z,29.50
2023-07-26T10:13:43.689Z,29.60
2023-07-26T10:16:19.240Z,29.60
2023-07-26T10:18:54.535Z,29.40
2023-07-26T10:21:30.843Z,29.50
2023-07-26T10:24:08.299Z,29.30
2023-07-26T10:26:43.100Z,29.20
2023-07-26T10:29:16.227Z,29.30
2023-07-26T10:31:49.195Z,29.40
2023-07-26T10:34:25.733Z,29.50
2023-07-26T10:36:58.896Z,29.60
2023-07-26T10:39:37.339Z,29.70
2023-07-26T10:42:25.501Z,29.80
2023-07-26T10:44:59.535Z,29.80
2023-07-26T10:47:34.939Z,29.90
2023-07-26T10:50:11.048Z,29.90
2023-07-26T10:52:46.061Z,29.80
2023-07-26T10:55:30.183Z,29.70
2023-07-26T10:58:04.504Z,29.60
2023-07-26T11:00:41.268Z,29.70
2023-07-26T11:03:16.782Z,29.60
2023-07-26T11:06:00.327Z,29.60
2023-07-26T11:08:50.273Z,29.50
2023-07-26T11:11:30.269Z,29.50
2023-07-26T11:14:04.057Z,29.30
2023-07-26T11:16:38.954Z,29.30
2023-07-26T11:19:14.886Z,29.20
2023-07-26T11:21:48.951Z,29.30
2023-07-26T11:24:31.875Z,29.30
2023-07-26T11:27:10.329Z,29.30
2023-07-26T11:29:44.125Z,29.40
2023-07-26T11:32:30.772Z,29.40
2023-07-26T11:35:04.976Z,29.20
2023-07-26T11:37:39.732Z,29.20
2023-07-26T11:40:15.362Z,29.10
2023-07-26T11:42:52.278Z,29.10
2023-07-26T11:45:25.699Z,29.20
2023-07-26T11:48:00.290Z,29.20
2023-07-26T11:50:33.864Z,29.20
2023-07-26T11:53:11.231Z,29.10
2023-07-26T11:55:45.647Z,28.80
2023-07-26T11:58:21.226Z,28.70
2023-07-26T12:00:54.705Z,28.70
2023-07-26T12:03:29.705Z,28.80
2023-07-26T12:06:08.664Z,28.70
2023-07-26T12:08:43.417Z,28.40
2023-07-26T12:11:19.400Z,28.40
2023-07-26T12:14:00.440Z,28.60
2023-07-26T12:16:34.623Z,28.70
2023-07-26T12:19:08.936Z,28.50
2023-07-26T12:21:45.415Z,28.50
2023-07-26T12:24:20.120Z,28.50
2023-07-26T12:26:54.418Z,28.70
2023-07-26T12:29:34.924Z,28.60
2023-07-26T12:32:17.155Z,28.70
2023-07-26T12:34:50.175Z,28.40
2023-07-26T12:37:34.350Z,28.50
2023-07-26T12:40:10.494Z,28.50
2023-07-26T12:42:46.251Z,28.50
2023-07-26T12:45:21.647Z,28.50
2023-07-26T12:48:00.212Z,28.50
2023-07-26T12:50:33.880Z,28.60
2023-07-26T12:53:08.460Z,28.70
2023-07-26T12:55:41.980Z,28.80
2023-07-26T12:58:15.640Z,28.80
2023-07-26T13:00:52.272Z,28.80
2023-07-26T13:03:26.422Z,28.90
2023-07-26T13:05:59.906Z,28.80
2023-07-26T13:08:38.467Z,28.80
2023-07-26T13:11:13.740Z,28.80
2023-07-26T13:13:49.114Z,28.70
2023-07-26T13:16:27.229Z,28.80
2023-07-26T13:19:03.596Z,28.80
2023-07-26T13:21:38.441Z,28.80
2023-07-26T13:24:12.822Z,28.80
2023-07-26T13:26:50.674Z,28.80
2023-07-26T13:29:25.177Z,28.80
2023-07-26T13:32:02.133Z,28.80
2023-07-26T13:34:38.785Z,28.80
2023-07-26T13:37:13.539Z,28.80
2023-07-26T13:39:46.950Z,28.80
2023-07-26T13:42:20.812Z,28.70
2023-07-26T13:44:57.104Z,28.80
2023-07-26T13:47:33.692Z,28.90
2023-07-26T13:50:09.437Z,28.90
2023-07-26T13:52:44.876Z,28.90
2023-07-26T13:55:19.835Z,29.00
2023-07-26T13:57:54.749Z,29.10
2023-07-26T14:00:28.972Z,29.20
2023-07-26T14:03:06.032Z,29.20
2023-07-26T14:05:40.149Z,29.20
2023-07-26T14:08:13.491Z,29.10
2023-07-26T14:10:50.737Z,29.10
2023-07-26T14:13:26.204Z,29.20
2023-07-26T14:16:11.874Z,29.20
2023-07-26T14:18:57.511Z,29.20
2023-07-26T14:21:31.398Z,29.20
2023-07-26T14:24:05.026Z,29.20
2023-07-26T14:26:39.717Z,29.30
2023-07-26T14:29:13.564Z,29.20
2023-07-26T14:31:49.246Z,29.20
2023-07-26T14:34:25.171Z,29.30
2023-07-26T14:36:59.783Z,29.20
2023-07-26T14:39:34.175Z,29.30
2023-07-26T14:42:07.731Z,29.20
2023-07-26T14:44:40.947Z,29.30
2023-07-26T14:47:15.817Z,29.30
2023-07-26T14:50:03.205Z,29.30
2023-07-26T14:52:40.856Z,29.30
2023-07-26T14:55:15.109Z,29.30
2023-07-26T14:57:50.794Z,29.10
2023-07-26T15:00:24.542Z,28.90
2023-07-26T15:03:02.201Z,28.90
2023-07-26T15:05:39.927Z,29.00
2023-07-26T15:08:14.330Z,29.00
2023-07-26T15:10:48.879Z,29.00
2023-07-26T15:13:23.771Z,29.00
2023-07-26T15:15:58.755Z,28.90
2023-07-26T15:18:32.761Z,29.00
2023-07-26T15:21:13.315Z,28.90
2023-07-26T15:23:49.258Z,29.00
2023-07-26T15:26:24.100Z,28.90
2023-07-26T15:29:00.278Z,28.80
2023-07-26T15:31:34.037Z,28.80
2023-07-26T15:34:08.727Z,28.70
2023-07-26T15:36:47.115Z,28.80
2023-07-26T15:39:21.719Z,28.80
2023-07-26T15:44:37.722Z,28.70
2023-07-26T15:47:14.891Z,28.60
2023-07-26T15:49:56.048Z,28.70
2023-07-26T15:52:33.358Z,28.70
2023-07-26T15:55:10.207Z,28.70
2023-07-26T15:57:45.701Z,28.70
2023-07-26T16:00:20.517Z,28.60
2023-07-26T16:08:11.996Z,28.20
2023-07-26T16:10:47.170Z,28.30
2023-07-26T16:13:22.709Z,28.20
2023-07-26T16:18:35.218Z,28.20
2023-07-26T16:23:46.843Z,28.40
2023-07-26T16:26:21.480Z,28.30
2023-07-26T16:28:57.812Z,28.10
2023-07-26T16:31:31.271Z,27.80
2023-07-26T16:34:05.612Z,27.50
2023-07-26T16:36:39.352Z,26.70
2023-07-26T16:39:15.903Z,26.30
2023-07-26T16:41:50.533Z,26.50
2023-07-26T16:44:23.479Z,26.80
2023-07-26T16:47:08.838Z,26.80
2023-07-26T16:49:43.280Z,27.00
2023-07-26T16:52:17.501Z,27.10
2023-07-26T16:54:54.829Z,27.10
2023-07-26T16:57:28.046Z,27.30
2023-07-26T17:00:01.496Z,27.40
2023-07-26T17:02:34.775Z,27.50
2023-07-26T17:05:10.234Z,27.40
2023-07-26T17:07:43.428Z,27.40
2023-07-26T17:10:19.517Z,27.30
2023-07-26T17:12:52.674Z,27.40
2023-07-26T17:15:26.182Z,27.30
2023-07-26T17:17:59.390Z,27.20
2023-07-26T17:20:32.328Z,27.10
2023-07-26T17:23:06.348Z,27.00
2023-07-26T17:25:42.308Z,27.10
2023-07-26T17:28:15.541Z,27.10
2023-07-26T17:31:00.203Z,27.10
2023-07-26T17:33:34.230Z,27.20
2023-07-26T17:36:17.224Z,27.00
2023-07-26T17:38:50.451Z,27.10
2023-07-26T17:41:25.944Z,27.30
2023-07-26T17:44:00.639Z,27.30
2023-07-26T17:46:34.753Z,27.50
2023-07-26T17:49:09.658Z,27.50
2023-07-26T17:51:44.291Z,27.30
2023-07-26T17:54:18.282Z,27.30
2023-07-26T17:56:53.828Z,27.20
2023-07-26T17:59:28.015Z,27.00
2023-07-26T18:02:01.820Z,27.00
2023-07-26T18:04:34.907Z,27.00
2023-07-26T18:07:10.495Z,27.10
2023-07-26T18:09:45.744Z,27.40
2023-07-26T18:12:21.674Z,27.40
2023-07-26T18:14:56.073Z,27.50
2023-07-26T18:17:30.619Z,27.50
2023-07-26T18:20:06.654Z,27.40
2023-07-26T18:22:41.942Z,27.20
2023-07-26T18:25:15.470Z,27.10
2023-07-26T18:27:52.999Z,26.90
2023-07-26T18:30:28.782Z,26.90
2023-07-26T18:33:03.007Z,26.70
2023-07-26T18:35:37.204Z,26.90
2023-07-26T18:38:11.351Z,26.80
2023-07-26T18:40:44.946Z,26.80
2023-07-26T18:43:23.374Z,26.70
2023-07-26T18:45:57.687Z,26.50
2023-07-26T18:48:31.309Z,26.50
2023-07-26T18:51:07.369Z,26.50
2023-07-26T18:53:40.502Z,26.20
2023-07-26T18:56:13.823Z,25.90
2023-07-26T18:58:51.569Z,25.50
2023-07-26T19:01:25.030Z,25.30
2023-07-26T19:03:58.588Z,25.10
2023-07-26T19:06:32.193Z,24.80
2023-07-26T19:09:09.165Z,24.10
2023-07-26T19:11:42.889Z,23.90
2023-07-26T19:14:18.775Z,23.70
2023-07-26T19:16:52.488Z,23.70
2023-07-26T19:19:25.699Z,23.60
2023-07-26T19:21:57.695Z,23.60
2023-07-26T19:24:29.714Z,23.30
2023-07-26T19:27:02.138Z,23.40
2023-07-26T19:29:38.763Z,23.40
2023-07-26T19:32:12.138Z,23.20
2023-07-26T19:34:46.311Z,23.40
2023-07-26T19:37:19.448Z,23.30
2023-07-26T19:39:52.182Z,23.50
2023-07-26T19:42:25.536Z,23.40
2023-07-26T19:45:00.184Z,23.70
2023-07-26T19:47:32.644Z,23.90
2023-07-26T19:50:07.282Z,24.00
2023-07-26T19:52:42.350Z,23.90
2023-07-26T19:55:17.702Z,24.10
2023-07-26T19:57:52.113Z,24.20
2023-07-26T20:00:26.610Z,24.10
2023-07-26T20:02:58.763Z,24.10
2023-07-26T20:05:33.137Z,23.90
2023-07-26T20:08:06.275Z,24.00
2023-07-26T20:10:38.398Z,24.20
2023-07-26T20:13:11.516Z,24.20
2023-07-26T20:15:45.344Z,24.30
2023-07-26T20:18:19.991Z,24.20
2023-07-26T20:20:52.082Z,24.30
2023-07-26T20:23:24.600Z,24.30
2023-07-26T20:25:57.388Z,24.30
2023-07-26T20:28:29.490Z,24.30
2023-07-26T20:31:05.449Z,24.30
2023-07-26T20:33:37.246Z,24.30
2023-07-26T20:36:10.530Z,24.30
2023-07-26T20:38:44.103Z,24.30
2023-07-26T20:41:16.996Z,24.30
2023-07-26T20:43:50.529Z,24.10
2023-07-26T20:46:27.246Z,24.10
2023-07-26T20:49:00.920Z,24.00
2023-07-26T20:51:34.426Z,24.00
2023-07-26T20:54:07.388Z,24.00
2023-07-26T20:56:40.176Z,24.00
2023-07-26T20:59:12.771Z,23.90
2023-07-26T21:01:50.317Z,23.80
2023-07-26T21:04:22.888Z,23.80
2023-07-26T21:06:55.345Z,23.80
2023-07-26T21:09:28.046Z,23.90
2023-07-26T21:12:00.481Z,24.00
2023-07-26T21:14:32.579Z,24.10
2023-07-26T21:17:09.436Z,24.10
2023-07-26T21:19:42.409Z,24.00
2023-07-26T21:22:14.801Z,24.00
2023-07-26T21:24:47.601Z,24.10
2023-07-26T21:27:19.597Z,24.40
2023-07-26T21:29:52.726Z,24.70
2023-07-26T21:32:26.806Z,24.70
2023-07-26T21:35:00.062Z,24.20
2023-07-26T21:37:32.290Z,24.00
2023-07-26T21:40:04.819Z,23.80
2023-07-26T21:42:37.219Z,23.80
2023-07-26T21:45:10.007Z,24.00
2023-07-26T21:47:44.502Z,24.00
2023-07-26T21:50:16.193Z,24.00
2023-07-26T21:52:48.219Z,23.80
2023-07-26T21:55:21.362Z,23.70
2023-07-26T21:57:54.024Z,23.80
2023-07-26T22:00:26.945Z,23.90
2023-07-26T22:03:00.847Z,24.10
2023-07-26T22:05:32.997Z,24.20
2023-07-26T22:08:05.542Z,24.10
2023-07-26T22:10:39.873Z,24.00
2023-07-26T22:13:12.897Z,23.90
2023-07-26T22:15:45.559Z,24.00
2023-07-26T22:18:20.879Z,24.00
2023-07-26T22:23:38.042Z,24.20
2023-07-26T22:26:14.002Z,24.20
2023-07-26T22:28:48.599Z,24.20
2023-07-26T22:31:23.295Z,24.10
2023-07-26T22:33:58.507Z,24.00
2023-07-26T22:36:32.857Z,23.90
2023-07-26T22:39:05.652Z,24.00
2023-07-26T22:41:38.735Z,24.00
2023-07-26T22:44:12.260Z,23.80
2023-07-26T22:46:45.673Z,23.80
2023-07-26T22:49:21.290Z,23.70
2023-07-26T22:51:54.734Z,23.70
2023-07-26T22:54:27.272Z,23.70
2023-07-26T22:57:00.271Z,23.80
2023-07-26T22:59:34.651Z,23.90
2023-07-26T23:02:06.693Z,23.80
2023-07-26T23:04:40.564Z,23.80
2023-07-26T23:07:13.628Z,23.80
2023-07-26T23:09:45.939Z,23.80
2023-07-26T23:12:17.979Z,23.70
2023-07-26T23:14:50.926Z,23.70
2023-07-26T23:17:23.390Z,23.70
2023-07-26T23:19:59.862Z,23.90
2023-07-26T23:22:32.100Z,23.90
2023-07-26T23:25:05.154Z,23.70
2023-07-26T23:27:39.709Z,23.90
2023-07-26T23:30:13.289Z,24.10
2023-07-26T23:32:46.358Z,24.00
2023-07-26T23:35:20.627Z,24.00
2023-07-26T23:37:52.743Z,24.10
2023-07-26T23:40:27.386Z,24.00
2023-07-26T23:42:59.468Z,24.30
2023-07-26T23:45:32.033Z,24.20
2023-07-26T23:48:04.625Z,24.10
2023-07-26T23:50:38.782Z,24.00
2023-07-26T23:53:11.902Z,24.20
2023-07-26T23:55:47.033Z,24.20
2023-07-26T23:58:20.233Z,24.10
